createdAt,value
2024-02-22T00:00:59.863Z,95.64
2024-02-22T00:03:02.510Z,95.20
2024-02-22T00:05:06.471Z,95.40
2024-02-22T00:07:12.157Z,94.99
2024-02-22T00:09:14.734Z,94.78
2024-02-22T00:11:17.535Z,95.27
2024-02-22T00:13:20.269Z,95.00
2024-02-22T00:15:22.876Z,95.53
2024-02-22T00:17:26.157Z,95.28
2024-02-22T00:19:29.172Z,95.15
2024-02-22T00:21:31.838Z,95.04
2024-02-22T00:23:35.433Z,94.79
2024-02-22T00:25:38.256Z,94.86
2024-02-22T00:27:42.759Z,95.14
2024-02-22T00:29:45.400Z,95.23
2024-02-22T00:31:48.186Z,95.10
2024-02-22T00:33:50.947Z,95.28
2024-02-22T00:35:53.679Z,95.23
2024-02-22T00:37:56.343Z,95.15
2024-02-22T00:39:59.135Z,94.69
2024-02-22T00:42:02.915Z,94.38
2024-02-22T00:44:08.823Z,94.53
2024-02-22T00:46:11.627Z,94.34
2024-02-22T00:48:14.383Z,94.33
2024-02-22T00:50:17.202Z,94.62
2024-02-22T00:52:20.577Z,94.85
2024-02-22T00:54:23.469Z,94.47
2024-02-22T00:56:26.041Z,94.71
2024-02-22T00:58:29.579Z,94.64
2024-02-22T01:00:32.385Z,94.32
2024-02-22T01:02:35.131Z,94.87
2024-02-22T01:04:38.935Z,95.11
2024-02-22T01:06:41.866Z,95.30
2024-02-22T01:08:44.520Z,95.05
2024-02-22T01:10:47.638Z,95.19
2024-02-22T01:12:50.360Z,94.74
2024-02-22T01:14:52.895Z,95.08
2024-02-22T01:16:55.528Z,95.26
2024-02-22T01:19:00.522Z,95.27
2024-02-22T01:21:03.439Z,95.55
2024-02-22T01:23:07.887Z,95.39
2024-02-22T01:25:12.014Z,95.95
2024-02-22T01:27:14.919Z,95.68
2024-02-22T01:29:17.828Z,95.26
2024-02-22T01:31:21.785Z,95.38
2024-02-22T01:33:24.485Z,95.63
2024-02-22T01:35:27.723Z,95.77
2024-02-22T01:37:30.592Z,95.69
2024-02-22T01:39:33.797Z,95.34
2024-02-22T01:41:36.595Z,95.94
2024-02-22T01:43:39.446Z,95.90
2024-02-22T01:45:42.067Z,95.89
2024-02-22T01:47:45.043Z,95.78
2024-02-22T01:49:48.726Z,95.58
2024-02-22T01:51:58.876Z,95.53
2024-02-22T01:54:01.969Z,95.46
2024-02-22T01:56:07.095Z,95.58
2024-02-22T01:58:10.391Z,95.78
2024-02-22T02:00:19.219Z,95.89
2024-02-22T02:02:22.231Z,95.32
2024-02-22T02:04:24.985Z,95.41
2024-02-22T02:06:27.568Z,95.77
2024-02-22T02:08:30.199Z,95.87
2024-02-22T02:10:32.973Z,96.14
2024-02-22T02:12:36.152Z,95.89
2024-02-22T02:14:39.906Z,95.98
2024-02-22T02:16:42.736Z,95.82
2024-02-22T02:18:46.291Z,95.94
2024-02-22T02:21:00.027Z,96.18
2024-02-22T02:23:17.429Z,96.16
2024-02-22T02:25:20.619Z,96.16
2024-02-22T02:27:23.566Z,96.15
2024-02-22T02:29:26.349Z,95.47
2024-02-22T02:31:32.008Z,95.40
2024-02-22T02:33:34.759Z,95.08
2024-02-22T02:35:39.280Z,95.21
2024-02-22T02:37:43.832Z,95.15
2024-02-22T02:39:46.446Z,95.09
2024-02-22T02:41:49.078Z,94.91
2024-02-22T02:43:51.621Z,95.25
2024-02-22T02:45:54.280Z,95.00
2024-02-22T02:47:56.947Z,94.88
2024-02-22T02:50:01.043Z,95.02
2024-02-22T02:52:04.197Z,94.61
2024-02-22T02:54:07.157Z,94.88
2024-02-22T02:56:10.921Z,95.32
2024-02-22T02:58:13.609Z,95.45
2024-02-22T03:00:16.890Z,95.27
2024-02-22T03:02:22.327Z,95.53
2024-02-22T03:04:26.162Z,95.63
2024-02-22T03:06:28.956Z,95.23
2024-02-22T03:08:31.794Z,95.15
2024-02-22T03:10:34.458Z,94.95
2024-02-22T03:12:37.220Z,94.96
2024-02-22T03:14:41.059Z,94.83
2024-02-22T03:16:44.024Z,94.92
2024-02-22T03:18:46.757Z,94.97
2024-02-22T03:20:49.586Z,95.21
2024-02-22T03:22:52.608Z,95.09
2024-02-22T03:24:55.967Z,94.87
2024-02-22T03:27:01.395Z,95.33
2024-02-22T03:29:04.100Z,95.58
2024-02-22T03:31:08.693Z,95.41
2024-02-22T03:33:11.371Z,95.45
2024-02-22T03:35:14.011Z,95.63
2024-02-22T03:37:16.593Z,95.79
2024-02-22T03:39:23.939Z,95.81
2024-02-22T03:41:26.561Z,95.91
2024-02-22T03:43:29.501Z,95.64
2024-02-22T03:45:32.078Z,96.31
2024-02-22T03:47:34.672Z,96.36
2024-02-22T03:49:39.988Z,96.43
2024-02-22T03:51:42.609Z,96.32
2024-02-22T03:53:46.302Z,96.38
2024-02-22T03:55:52.010Z,96.29
2024-02-22T03:57:54.919Z,96.36
2024-02-22T03:59:57.648Z,96.12
2024-02-22T04:02:00.543Z,95.80
2024-02-22T04:04:03.337Z,95.84
2024-02-22T04:06:06.414Z,95.84
2024-02-22T04:08:09.126Z,96.02
2024-02-22T04:10:12.137Z,95.83
2024-02-22T04:12:15.090Z,95.26
2024-02-22T04:14:17.905Z,95.12
2024-02-22T04:16:20.827Z,95.28
2024-02-22T04:18:23.467Z,95.27
2024-02-22T04:20:26.489Z,95.22
2024-02-22T04:22:45.313Z,95.31
2024-02-22T04:24:48.196Z,95.31
2024-02-22T04:26:53.201Z,95.44
2024-02-22T04:28:56.056Z,95.05
2024-02-22T04:30:59.351Z,94.68
2024-02-22T04:33:04.895Z,94.91
2024-02-22T04:35:08.932Z,95.08
2024-02-22T04:37:11.605Z,94.26
2024-02-22T04:39:15.527Z,94.24
2024-02-22T04:41:22.525Z,94.26
2024-02-22T04:43:25.249Z,94.49
2024-02-22T04:45:27.877Z,94.11
2024-02-22T04:47:34.646Z,94.18
2024-02-22T04:49:37.622Z,93.98
2024-02-22T04:51:41.612Z,94.26
2024-02-22T04:53:44.356Z,93.57
2024-02-22T04:55:47.356Z,92.91
2024-02-22T04:57:50.344Z,93.12
2024-02-22T04:59:53.003Z,92.00
2024-02-22T05:01:55.668Z,92.28
2024-02-22T05:03:58.534Z,92.31
2024-02-22T05:06:01.354Z,92.41
2024-02-22T05:08:04.393Z,92.72
2024-02-22T05:10:11.227Z,93.45
2024-02-22T05:12:15.356Z,93.07
2024-02-22T05:14:20.117Z,92.59
2024-02-22T05:16:23.023Z,92.33
2024-02-22T05:18:26.900Z,92.15
2024-02-22T05:20:31.681Z,92.04
2024-02-22T05:22:34.689Z,91.98
2024-02-22T05:24:37.488Z,91.60
2024-02-22T05:26:40.103Z,92.75
2024-02-22T05:28:43.362Z,93.40
2024-02-22T05:30:46.034Z,93.76
2024-02-22T05:32:48.765Z,93.32
2024-02-22T05:34:51.430Z,93.14
2024-02-22T05:36:54.022Z,93.00
2024-02-22T05:38:56.649Z,92.64
2024-02-22T05:40:59.198Z,93.38
2024-02-22T05:43:01.959Z,93.36
2024-02-22T05:45:05.170Z,92.95
2024-02-22T05:47:08.135Z,93.09
2024-02-22T05:49:11.198Z,93.24
2024-02-22T05:51:14.041Z,92.76
2024-02-22T05:53:16.697Z,91.77
2024-02-22T05:55:19.275Z,92.64
2024-02-22T05:57:21.920Z,92.90
2024-02-22T05:59:25.499Z,93.09
2024-02-22T06:01:28.331Z,92.47
2024-02-22T06:03:31.330Z,92.80
2024-02-22T06:05:35.255Z,92.85
2024-02-22T06:07:38.103Z,92.12
2024-02-22T06:09:43.756Z,92.45
2024-02-22T06:11:46.996Z,91.54
2024-02-22T06:13:49.747Z,91.73
2024-02-22T06:15:52.502Z,91.85
2024-02-22T06:17:55.516Z,91.56
2024-02-22T06:19:58.233Z,91.47
2024-02-22T06:22:00.798Z,91.19
2024-02-22T06:24:04.280Z,90.51
2024-02-22T06:26:07.207Z,91.87
2024-02-22T06:28:11.488Z,91.76
2024-02-22T06:30:16.282Z,91.86
2024-02-22T06:32:19.594Z,92.17
2024-02-22T06:34:22.348Z,91.63
2024-02-22T06:36:25.449Z,91.90
2024-02-22T06:38:28.090Z,90.42
2024-02-22T06:40:31.029Z,91.31
2024-02-22T06:42:36.876Z,91.62
2024-02-22T06:44:39.591Z,91.17
2024-02-22T06:46:44.968Z,92.31
2024-02-22T06:48:49.772Z,92.44
2024-02-22T06:50:52.481Z,92.00
2024-02-22T06:52:55.199Z,92.32
2024-02-22T06:54:58.257Z,91.63
2024-02-22T06:57:01.005Z,91.08
2024-02-22T06:59:03.720Z,91.81
2024-02-22T07:01:06.657Z,91.17
2024-02-22T07:03:11.761Z,91.34
2024-02-22T07:05:26.707Z,89.82
2024-02-22T07:07:29.483Z,90.93
2024-02-22T07:09:32.275Z,90.11
2024-02-22T07:11:34.967Z,89.70
2024-02-22T07:13:39.105Z,88.81
2024-02-22T07:15:41.915Z,89.71
2024-02-22T07:17:46.160Z,89.66
2024-02-22T07:19:49.696Z,88.77
2024-02-22T07:21:52.864Z,89.03
2024-02-22T07:23:55.649Z,89.04
2024-02-22T07:25:58.305Z,88.14
2024-02-22T07:28:01.352Z,90.08
2024-02-22T07:30:04.484Z,90.30
2024-02-22T07:32:09.555Z,90.25
2024-02-22T07:34:14.358Z,88.42
2024-02-22T07:36:17.100Z,89.71
2024-02-22T07:38:20.918Z,86.81
2024-02-22T07:40:24.857Z,86.99
2024-02-22T07:42:27.827Z,87.96
2024-02-22T07:44:30.644Z,86.31
2024-02-22T07:46:33.531Z,86.90
2024-02-22T07:48:36.912Z,86.32
2024-02-22T07:50:39.748Z,85.21
2024-02-22T07:52:42.487Z,86.01
2024-02-22T07:54:47.859Z,85.87
2024-02-22T07:56:53.597Z,84.52
2024-02-22T07:58:59.194Z,83.36
2024-02-22T08:01:11.775Z,84.73
2024-02-22T08:03:19.140Z,83.43
2024-02-22T08:05:21.802Z,83.22
2024-02-22T08:07:24.467Z,82.98
2024-02-22T08:09:27.068Z,83.52
2024-02-22T08:11:30.239Z,84.35
2024-02-22T08:13:33.106Z,83.35
2024-02-22T08:15:36.422Z,84.50
2024-02-22T08:17:41.750Z,82.60
2024-02-22T08:19:46.469Z,83.09
2024-02-22T08:21:49.206Z,85.96
2024-02-22T08:23:56.720Z,84.73
2024-02-22T08:26:03.923Z,83.40
2024-02-22T08:28:09.802Z,82.96
2024-02-22T08:30:13.573Z,83.20
2024-02-22T08:32:17.966Z,83.35
2024-02-22T08:34:21.041Z,82.67
2024-02-22T08:36:23.801Z,82.28
2024-02-22T08:38:29.608Z,82.29
2024-02-22T08:40:39.017Z,82.89
2024-02-22T08:42:43.417Z,80.37
2024-02-22T08:44:46.159Z,81.35
2024-02-22T08:46:51.478Z,82.79
2024-02-22T08:48:54.205Z,80.74
2024-02-22T08:50:59.112Z,80.98
2024-02-22T08:53:02.173Z,82.89
2024-02-22T08:55:05.431Z,81.43
2024-02-22T08:57:08.150Z,80.85
2024-02-22T08:59:11.014Z,82.59
2024-02-22T09:01:14.336Z,81.37
2024-02-22T09:03:17.135Z,81.92
2024-02-22T09:05:20.795Z,81.67
2024-02-22T09:07:24.179Z,80.84
2024-02-22T09:09:27.542Z,79.92
2024-02-22T09:11:30.919Z,79.83
2024-02-22T09:13:33.722Z,79.06
2024-02-22T09:15:36.484Z,80.58
2024-02-22T09:17:40.182Z,77.60
2024-02-22T09:19:44.033Z,80.99
2024-02-22T09:21:49.641Z,78.92
2024-02-22T09:23:53.627Z,78.41
2024-02-22T09:25:56.454Z,83.90
2024-02-22T09:27:59.157Z,83.00
2024-02-22T09:30:05.593Z,81.59
2024-02-22T09:32:10.819Z,81.04
2024-02-22T09:34:14.639Z,78.77
2024-02-22T09:36:18.369Z,82.02
2024-02-22T09:38:21.186Z,81.47
2024-02-22T09:40:25.077Z,79.21
2024-02-22T09:42:28.986Z,80.56
2024-02-22T09:44:34.179Z,80.61
2024-02-22T09:46:39.437Z,79.18
2024-02-22T09:48:43.793Z,78.53
2024-02-22T09:50:46.849Z,74.69
2024-02-22T09:52:50.739Z,78.29
2024-02-22T09:54:53.466Z,78.55
2024-02-22T09:56:57.389Z,76.48
2024-02-22T09:59:01.513Z,77.59
2024-02-22T10:01:04.508Z,78.16
2024-02-22T10:03:07.897Z,76.99
2024-02-22T10:05:11.397Z,78.85
2024-02-22T10:07:21.421Z,76.38
2024-02-22T10:09:24.016Z,76.13
2024-02-22T10:11:26.745Z,78.04
2024-02-22T10:13:29.987Z,75.65
2024-02-22T10:15:35.295Z,76.51
2024-02-22T10:17:39.759Z,75.56
2024-02-22T10:19:43.310Z,75.74
2024-02-22T10:21:47.507Z,76.47
2024-02-22T10:23:59.974Z,76.88
2024-02-22T10:26:04.756Z,78.03
2024-02-22T10:28:07.890Z,79.59
2024-02-22T10:30:12.466Z,79.19
2024-02-22T10:32:21.711Z,79.26
2024-02-22T10:34:26.938Z,77.03
2024-02-22T10:36:30.298Z,77.71
2024-02-22T10:38:34.008Z,75.06
2024-02-22T10:40:37.181Z,76.95
2024-02-22T10:42:41.714Z,77.03
2024-02-22T10:44:46.490Z,76.72
2024-02-22T10:46:51.210Z,76.36
2024-02-22T10:48:54.137Z,75.22
2024-02-22T10:50:59.489Z,74.64
2024-02-22T10:53:05.317Z,74.73
2024-02-22T10:55:15.609Z,76.71
2024-02-22T10:57:24.727Z,76.25
2024-02-22T10:59:29.571Z,76.29
2024-02-22T11:01:36.363Z,76.22
2024-02-22T11:03:42.173Z,74.73
2024-02-22T11:05:49.061Z,75.82
2024-02-22T11:07:53.876Z,76.72
2024-02-22T11:10:17.110Z,76.99
2024-02-22T11:12:21.159Z,74.49
2024-02-22T11:14:34.528Z,75.59
2024-02-22T11:16:44.054Z,75.53
2024-02-22T11:18:51.103Z,73.64
2024-02-22T11:20:56.469Z,73.29
2024-02-22T11:22:59.443Z,75.81
2024-02-22T11:25:26.465Z,73.80
2024-02-22T11:27:29.305Z,75.65
2024-02-22T11:29:34.580Z,76.09
2024-02-22T11:31:38.211Z,75.60
2024-02-22T11:33:42.086Z,75.34
2024-02-22T11:35:45.079Z,76.18
2024-02-22T11:38:00.386Z,73.65
2024-02-22T11:40:05.880Z,73.83
2024-02-22T11:42:14.796Z,74.32
2024-02-22T11:44:18.155Z,74.23
2024-02-22T11:46:21.548Z,76.97
2024-02-22T11:48:24.339Z,73.35
2024-02-22T11:50:32.241Z,73.20
2024-02-22T11:52:35.198Z,73.74
2024-02-22T11:54:42.837Z,73.59
2024-02-22T11:56:49.011Z,74.92
2024-02-22T11:58:52.980Z,73.50
2024-02-22T12:00:55.755Z,75.70
2024-02-22T12:02:59.694Z,76.18
2024-02-22T12:05:04.120Z,75.35
2024-02-22T12:07:08.713Z,74.79
2024-02-22T12:09:15.520Z,75.01
2024-02-22T12:11:19.812Z,76.46
2024-02-22T12:13:22.766Z,74.20
2024-02-22T12:15:28.118Z,74.36
2024-02-22T12:17:35.848Z,74.70
2024-02-22T12:19:44.636Z,72.02
2024-02-22T12:21:50.222Z,73.92
2024-02-22T12:24:04.683Z,73.16
2024-02-22T12:26:10.450Z,73.50
2024-02-22T12:28:13.149Z,73.23
2024-02-22T12:30:16.022Z,72.21
2024-02-22T12:32:20.353Z,73.04
2024-02-22T12:34:23.469Z,73.29
2024-02-22T12:36:26.914Z,72.51
2024-02-22T12:38:31.005Z,71.90
2024-02-22T12:40:33.543Z,73.15
2024-02-22T12:42:36.709Z,73.04
2024-02-22T12:44:39.415Z,75.03
2024-02-22T12:46:42.119Z,76.13
2024-02-22T12:48:45.658Z,74.88
2024-02-22T12:50:48.369Z,74.70
2024-02-22T12:52:51.065Z,73.39
2024-02-22T12:54:54.466Z,74.56
2024-02-22T12:56:57.006Z,73.49
2024-02-22T12:59:05.581Z,74.06
2024-02-22T13:01:08.377Z,74.14
2024-02-22T13:03:11.290Z,72.38
2024-02-22T13:05:13.954Z,73.38
2024-02-22T13:07:19.201Z,75.20
2024-02-22T13:09:21.890Z,75.18
2024-02-22T13:11:27.013Z,74.33
2024-02-22T13:13:29.718Z,72.15
2024-02-22T13:15:32.400Z,74.42
2024-02-22T13:17:35.066Z,73.51
2024-02-22T13:19:37.860Z,74.30
2024-02-22T13:21:41.848Z,72.96
2024-02-22T13:23:44.893Z,72.68
2024-02-22T13:25:47.476Z,74.13
2024-02-22T13:27:50.292Z,77.07
2024-02-22T13:29:53.147Z,75.89
2024-02-22T13:31:59.181Z,76.52
2024-02-22T13:34:02.436Z,74.26
2024-02-22T13:36:06.426Z,73.98
2024-02-22T13:38:16.249Z,76.73
2024-02-22T13:40:21.268Z,74.61
2024-02-22T13:42:24.216Z,72.96
2024-02-22T13:44:30.878Z,74.39
2024-02-22T13:46:34.331Z,73.27
2024-02-22T13:48:41.745Z,74.14
2024-02-22T13:50:44.636Z,73.97
2024-02-22T13:52:47.344Z,74.83
2024-02-22T13:54:50.073Z,75.99
2024-02-22T13:56:52.930Z,77.51
2024-02-22T13:58:55.583Z,77.86
2024-02-22T14:00:58.242Z,77.39
2024-02-22T14:03:01.037Z,78.03
2024-02-22T14:05:05.786Z,79.64
2024-02-22T14:07:08.565Z,79.79
2024-02-22T14:09:11.856Z,79.34
2024-02-22T14:11:15.597Z,80.41
2024-02-22T14:13:23.714Z,80.90
2024-02-22T14:15:26.501Z,81.77
2024-02-22T14:17:29.547Z,81.41
2024-02-22T14:19:33.776Z,81.14
2024-02-22T14:21:36.910Z,81.04
2024-02-22T14:23:40.189Z,78.60
2024-02-22T14:25:45.394Z,80.91
2024-02-22T14:27:48.756Z,78.68
2024-02-22T14:29:53.518Z,78.25
2024-02-22T14:31:56.292Z,78.46
2024-02-22T14:33:58.966Z,79.75
2024-02-22T14:36:01.582Z,79.97
2024-02-22T14:38:09.268Z,79.47
2024-02-22T14:40:13.220Z,80.86
2024-02-22T14:42:18.387Z,78.60
2024-02-22T14:44:22.113Z,80.15
2024-02-22T14:46:24.898Z,81.78
2024-02-22T14:48:27.576Z,82.30
2024-02-22T14:50:30.435Z,81.39
2024-02-22T14:52:33.110Z,80.60
2024-02-22T14:54:37.008Z,82.26
2024-02-22T14:56:40.215Z,81.11
2024-02-22T14:58:46.887Z,80.51
2024-02-22T15:00:49.621Z,82.70
2024-02-22T15:02:52.337Z,82.33
2024-02-22T15:04:56.975Z,82.96
2024-02-22T15:07:00.844Z,82.16
2024-02-22T15:09:05.417Z,82.10
2024-02-22T15:11:08.215Z,82.18
2024-02-22T15:13:13.916Z,83.35
2024-02-22T15:15:17.484Z,83.02
2024-02-22T15:17:23.398Z,83.89
2024-02-22T15:19:27.000Z,82.95
2024-02-22T15:21:30.121Z,82.41
2024-02-22T15:23:36.966Z,84.56
2024-02-22T15:25:40.091Z,82.29
2024-02-22T15:27:44.216Z,81.81
2024-02-22T15:29:49.134Z,83.10
2024-02-22T15:31:52.344Z,84.22
2024-02-22T15:34:04.613Z,84.15
2024-02-22T15:36:11.421Z,82.30
2024-02-22T15:38:14.151Z,82.76
2024-02-22T15:40:18.203Z,82.60
2024-02-22T15:42:21.557Z,83.68
2024-02-22T15:44:24.918Z,84.52
2024-02-22T15:46:27.549Z,84.41
2024-02-22T15:48:30.196Z,84.64
2024-02-22T15:50:32.967Z,84.41
2024-02-22T15:52:35.583Z,84.07
2024-02-22T15:54:38.517Z,85.30
2024-02-22T15:56:41.536Z,84.14
2024-02-22T15:58:44.414Z,83.71
2024-02-22T16:00:48.020Z,84.36
2024-02-22T16:02:51.042Z,83.94
2024-02-22T16:04:53.898Z,84.38
2024-02-22T16:06:56.712Z,84.84
2024-02-22T16:09:00.277Z,84.58
2024-02-22T16:11:03.293Z,83.59
2024-02-22T16:13:07.126Z,83.78
2024-02-22T16:15:11.627Z,84.49
2024-02-22T16:17:14.704Z,84.23
2024-02-22T16:19:17.308Z,84.60
2024-02-22T16:21:19.973Z,85.24
2024-02-22T16:23:27.028Z,85.30
2024-02-22T16:25:32.487Z,84.39
2024-02-22T16:27:35.636Z,84.95
2024-02-22T16:29:38.287Z,84.72
2024-02-22T16:31:41.094Z,85.80
2024-02-22T16:33:46.208Z,85.73
2024-02-22T16:35:49.173Z,85.37
2024-02-22T16:37:51.733Z,84.88
2024-02-22T16:39:54.361Z,84.76
2024-02-22T16:41:57.060Z,85.28
2024-02-22T16:43:59.683Z,85.18
2024-02-22T16:46:03.913Z,86.39
2024-02-22T16:48:07.224Z,84.19
2024-02-22T16:50:10.071Z,84.31
2024-02-22T16:52:12.862Z,84.94
2024-02-22T16:54:15.468Z,85.45
2024-02-22T16:56:18.598Z,85.05
2024-02-22T16:58:21.324Z,85.25
2024-02-22T17:00:26.484Z,86.18
2024-02-22T17:02:30.597Z,86.04
2024-02-22T17:04:33.233Z,85.40
2024-02-22T17:06:37.006Z,83.78
2024-02-22T17:08:39.659Z,83.90
2024-02-22T17:10:42.413Z,84.69
2024-02-22T17:12:45.196Z,84.60
2024-02-22T17:14:50.699Z,84.69
2024-02-22T17:16:54.109Z,85.04
2024-02-22T17:18:57.444Z,85.42
2024-02-22T17:21:00.368Z,85.07
2024-02-22T17:23:02.974Z,84.02
2024-02-22T17:25:08.156Z,84.42
2024-02-22T17:27:12.109Z,84.95
2024-02-22T17:29:14.706Z,84.44
2024-02-22T17:31:17.394Z,84.49
2024-02-22T17:33:22.064Z,84.02
2024-02-22T17:35:25.644Z,84.18
2024-02-22T17:37:28.223Z,84.82
2024-02-22T17:39:32.486Z,84.63
2024-02-22T17:41:35.700Z,83.62
2024-02-22T17:43:38.730Z,84.10
2024-02-22T17:45:41.454Z,84.25
2024-02-22T17:47:44.017Z,84.03
2024-02-22T17:49:47.219Z,83.97
2024-02-22T17:51:53.868Z,84.69
2024-02-22T17:53:57.932Z,84.89
2024-02-22T17:56:00.753Z,85.27
2024-02-22T17:58:03.334Z,84.61
2024-02-22T18:00:06.816Z,84.48
2024-02-22T18:02:09.513Z,84.23
2024-02-22T18:04:12.278Z,84.97
2024-02-22T18:06:14.998Z,85.19
2024-02-22T18:08:17.586Z,84.99
2024-02-22T18:10:20.338Z,84.42
2024-02-22T18:12:25.200Z,83.94
2024-02-22T18:14:33.149Z,84.45
2024-02-22T18:16:35.966Z,84.75
2024-02-22T18:18:40.383Z,85.00
2024-02-22T18:20:43.167Z,83.80
2024-02-22T18:22:45.788Z,84.34
2024-02-22T18:24:48.389Z,84.33
2024-02-22T18:26:50.909Z,84.62
2024-02-22T18:28:53.620Z,85.20
2024-02-22T18:30:56.211Z,85.51
2024-02-22T18:32:58.773Z,85.68
2024-02-22T18:35:01.472Z,84.62
2024-02-22T18:37:06.205Z,83.73
2024-02-22T18:39:11.656Z,83.00
2024-02-22T18:41:18.237Z,83.83
2024-02-22T18:43:21.402Z,83.73
2024-02-22T18:45:23.952Z,86.41
2024-02-22T18:47:26.513Z,85.17
2024-02-22T18:49:29.006Z,86.02
2024-02-22T18:51:32.439Z,84.67
2024-02-22T18:53:35.560Z,85.67
2024-02-22T18:55:41.164Z,85.17
2024-02-22T18:57:43.874Z,84.42
2024-02-22T18:59:47.058Z,85.73
2024-02-22T19:01:49.635Z,84.97
2024-02-22T19:03:54.441Z,84.74
2024-02-22T19:05:57.064Z,85.88
2024-02-22T19:07:59.663Z,86.16
2024-02-22T19:10:02.267Z,85.57
2024-02-22T19:12:05.622Z,85.58
2024-02-22T19:14:08.385Z,84.75
2024-02-22T19:16:11.385Z,84.61
2024-02-22T19:18:14.477Z,84.39
2024-02-22T19:20:17.325Z,84.59
2024-02-22T19:22:19.952Z,83.94
2024-02-22T19:24:24.658Z,84.18
2024-02-22T19:26:27.282Z,84.95
2024-02-22T19:28:29.794Z,85.34
2024-02-22T19:31:01.884Z,85.61
2024-02-22T19:33:04.572Z,86.03
2024-02-22T19:35:07.566Z,84.96
2024-02-22T19:37:10.126Z,84.97
2024-02-22T19:39:12.704Z,84.93
2024-02-22T19:41:15.620Z,84.94
2024-02-22T19:43:18.938Z,85.45
2024-02-22T19:45:21.435Z,84.75
2024-02-22T19:47:26.242Z,86.30
2024-02-22T19:49:29.332Z,85.69
2024-02-22T19:51:33.034Z,84.72
2024-02-22T19:53:35.952Z,85.16
2024-02-22T19:55:38.601Z,85.48
2024-02-22T19:57:41.129Z,85.59
2024-02-22T19:59:43.787Z,85.10
2024-02-22T20:01:47.212Z,85.11
2024-02-22T20:03:49.827Z,84.73
2024-02-22T20:05:52.358Z,85.09
2024-02-22T20:07:55.347Z,85.56
2024-02-22T20:09:57.964Z,86.06
2024-02-22T20:12:00.652Z,85.75
2024-02-22T20:14:08.463Z,85.09
2024-02-22T20:16:15.098Z,84.62
2024-02-22T20:18:17.902Z,85.00
2024-02-22T20:20:20.806Z,85.71
2024-02-22T20:22:23.387Z,85.98
2024-02-22T20:24:25.966Z,87.00
2024-02-22T20:26:28.728Z,86.53
2024-02-22T20:28:31.313Z,86.75
2024-02-22T20:30:33.785Z,87.36
2024-02-22T20:32:36.496Z,87.55
2024-02-22T20:34:39.189Z,87.29
2024-02-22T20:36:43.417Z,86.43
2024-02-22T20:38:46.166Z,87.53
2024-02-22T20:40:48.679Z,88.36
2024-02-22T20:42:52.607Z,88.32
2024-02-22T20:44:57.608Z,88.82
2024-02-22T20:47:00.423Z,88.57
2024-02-22T20:49:03.064Z,87.51
2024-02-22T20:51:05.615Z,86.13
2024-02-22T20:53:08.482Z,86.64
2024-02-22T20:55:12.066Z,85.99
2024-02-22T20:57:14.652Z,86.21
2024-02-22T20:59:18.476Z,85.24
2024-02-22T21:01:21.355Z,85.34
2024-02-22T21:03:26.273Z,84.90
2024-02-22T21:05:35.398Z,85.31
2024-02-22T21:07:38.178Z,84.11
2024-02-22T21:09:40.860Z,83.94
2024-02-22T21:11:43.422Z,84.63
2024-02-22T21:13:46.394Z,84.23
2024-02-22T21:15:49.135Z,84.24
2024-02-22T21:17:51.804Z,84.63
2024-02-22T21:19:56.521Z,83.84
2024-02-22T21:21:59.060Z,84.91
2024-02-22T21:24:01.957Z,85.22
2024-02-22T21:26:04.761Z,83.31
2024-02-22T21:28:07.305Z,84.38
2024-02-22T21:30:10.295Z,84.74
2024-02-22T21:32:13.024Z,85.80
2024-02-22T21:34:15.569Z,84.69
2024-02-22T21:36:18.219Z,84.41
2024-02-22T21:38:21.288Z,84.86
2024-02-22T21:40:23.860Z,84.58
2024-02-22T21:42:26.448Z,84.47
2024-02-22T21:44:31.140Z,85.56
2024-02-22T21:46:34.732Z,85.04
2024-02-22T21:48:37.274Z,85.36
2024-02-22T21:50:40.197Z,85.35
2024-02-22T21:52:43.895Z,85.74
2024-02-22T21:54:48.625Z,85.86
2024-02-22T21:56:51.640Z,86.09
2024-02-22T21:58:54.112Z,84.84
2024-02-22T22:00:56.736Z,85.48
2024-02-22T22:02:59.330Z,85.29
2024-02-22T22:05:02.183Z,85.54
2024-02-22T22:07:06.040Z,85.72
2024-02-22T22:09:08.725Z,85.45
2024-02-22T22:11:11.295Z,86.08
2024-02-22T22:13:14.029Z,86.13
2024-02-22T22:15:18.148Z,85.67
2024-02-22T22:17:21.006Z,85.05
2024-02-22T22:19:23.814Z,84.85
2024-02-22T22:21:31.632Z,84.63
2024-02-22T22:23:37.190Z,85.57
2024-02-22T22:25:39.817Z,85.26
2024-02-22T22:27:42.291Z,85.58
2024-02-22T22:29:44.807Z,85.91
2024-02-22T22:31:47.483Z,85.08
2024-02-22T22:33:50.190Z,85.77
2024-02-22T22:35:52.765Z,86.07
2024-02-22T22:37:55.333Z,85.65
2024-02-22T22:39:57.841Z,85.45
2024-02-22T22:42:00.925Z,84.48
2024-02-22T22:44:03.852Z,85.04
2024-02-22T22:46:06.735Z,84.39
2024-02-22T22:48:10.535Z,84.58
2024-02-22T22:50:14.303Z,83.48
2024-02-22T22:52:17.143Z,83.37
2024-02-22T22:54:19.720Z,83.78
2024-02-22T22:56:22.276Z,83.46
2024-02-22T22:58:25.882Z,84.36
2024-02-22T23:00:28.704Z,84.69
2024-02-22T23:02:31.779Z,84.35
2024-02-22T23:04:36.810Z,84.78
2024-02-22T23:06:39.447Z,84.40
2024-02-22T23:08:42.197Z,84.28
2024-02-22T23:10:44.964Z,83.80
2024-02-22T23:12:47.627Z,84.91
2024-02-22T23:14:50.335Z,84.47
2024-02-22T23:16:52.890Z,84.93
2024-02-22T23:18:55.590Z,84.35
2024-02-22T23:20:58.298Z,84.38
2024-02-22T23:23:00.804Z,83.33
2024-02-22T23:25:04.121Z,84.27
2024-02-22T23:27:07.074Z,84.38
2024-02-22T23:29:09.932Z,83.04
2024-02-22T23:31:12.716Z,83.48
2024-02-22T23:33:15.370Z,83.45
2024-02-22T23:35:18.115Z,83.67
2024-02-22T23:37:22.715Z,84.06
2024-02-22T23:39:25.353Z,84.08
2024-02-22T23:41:30.095Z,82.67
2024-02-22T23:43:33.443Z,83.49
2024-02-22T23:45:35.964Z,83.48
2024-02-22T23:47:38.578Z,83.38
2024-02-22T23:49:41.161Z,84.04
2024-02-22T23:51:44.462Z,83.95
2024-02-22T23:53:47.045Z,83.28
2024-02-22T23:55:49.628Z,83.16
2024-02-22T23:57:52.150Z,81.77
2024-02-22T23:59:55.033Z,83.92
